Time;durP1;ratioP1;P1;durP2;ratioP2;P2;SDS_P1;SDS_P2;PMS_P1;PMS_P2;Temp;Humidity;BMP_temperature;BMP_pressure;BME280_temperature;BME280_humidity;BME280_pressure;Samples;Min_cycle;Max_cycle;Signal;HPM_P1;HPM_P2
2022/03/09 00:02:24;;;;;;;16.90;12.10;;;;;;;2.83;48.01;102081.00;5056235;28;20375;-89
2022/03/09 00:04:50;;;;;;;14.80;10.73;;;;;;;2.75;47.92;102074.19;5056126;28;20052;-89
2022/03/09 00:07:15;;;;;;;18.27;11.23;;;;;;;2.70;48.11;102072.59;5054158;28;20029;-88
2022/03/09 00:09:40;;;;;;;14.55;10.32;;;;;;;2.62;48.59;102071.91;5054802;28;20021;-89
2022/03/09 00:12:06;;;;;;;13.82;9.63;;;;;;;2.68;48.23;102085.72;5054580;28;20025;-89
2022/03/09 00:14:32;;;;;;;15.65;9.85;;;;;;;2.66;48.55;102084.88;5056222;28;20033;-89
2022/03/09 00:16:57;;;;;;;13.10;9.60;;;;;;;2.56;48.62;102078.13;5056144;28;20040;-88
2022/03/09 00:19:22;;;;;;;13.70;9.23;;;;;;;2.58;48.29;102089.44;5054666;28;20031;-88
2022/03/09 00:21:48;;;;;;;14.95;9.07;;;;;;;2.53;48.20;102092.19;5054725;28;20215;-89
2022/03/09 00:24:14;;;;;;;13.23;9.73;;;;;;;2.45;48.34;102085.38;5055508;28;20025;-88
2022/03/09 00:26:40;;;;;;;15.40;9.60;;;;;;;2.42;48.32;102080.22;5042635;28;20152;-88
2022/03/09 00:29:06;;;;;;;12.68;9.00;;;;;;;2.39;48.72;102083.75;5056824;28;20025;-89
2022/03/09 00:31:31;;;;;;;12.73;9.00;;;;;;;2.34;48.87;102083.00;5057026;28;20089;-89
2022/03/09 00:33:56;;;;;;;14.93;10.05;;;;;;;2.34;48.76;102083.00;5056541;28;20119;-89
2022/03/09 00:36:22;;;;;;;15.23;9.65;;;;;;;2.32;48.90;102090.06;5054191;28;20055;-88
2022/03/09 00:38:47;;;;;;;15.32;9.30;;;;;;;2.33;49.09;102095.25;5057186;28;20088;-89
2022/03/09 00:41:16;;;;;;;13.35;9.18;;;;;;;2.21;49.30;102083.28;5071192;28;20040;-88
2022/03/09 00:43:42;;;;;;;11.65;9.02;;;;;;;2.25;48.79;102093.69;5041969;28;20139;-89
2022/03/09 00:46:12;;;;;;;11.10;9.05;;;;;;;2.15;49.03;102083.41;5056268;28;20113;-88
2022/03/09 00:48:38;;;;;;;14.40;8.93;;;;;;;2.17;49.02;102086.00;5056172;28;20047;-88
2022/03/09 00:51:03;;;;;;;13.50;8.98;;;;;;;2.16;49.13;102090.38;5056660;28;20487;-88
2022/03/09 00:53:29;;;;;;;15.25;9.25;;;;;;;2.17;49.37;102093.88;5053852;28;20561;-89
2022/03/09 00:55:54;;;;;;;15.43;9.27;;;;;;;2.14;49.27;102091.31;5057350;28;20021;-89
2022/03/09 00:58:19;;;;;;;12.95;9.15;;;;;;;2.03;49.21;102089.78;5071848;28;20017;-88
2022/03/09 01:00:45;;;;;;;13.02;9.00;;;;;;;2.06;49.59;102101.09;5061514;28;20036;-88
2022/03/09 01:03:10;;;;;;;12.10;9.10;;;;;;;1.96;48.95;102088.16;5070001;28;20037;-88
2022/03/09 01:05:36;;;;;;;10.70;8.27;;;;;;;1.91;49.71;102082.16;5075389;28;20270;-88
2022/03/09 01:08:01;;;;;;;17.65;8.70;;;;;;;1.91;49.66;102078.69;5068757;28;20037;-89
2022/03/09 01:10:27;;;;;;;10.90;8.73;;;;;;;1.88;49.78;102083.97;5058747;28;20032;-88
2022/03/09 01:12:52;;;;;;;12.20;8.60;;;;;;;1.89;50.18;102097.06;5057061;28;20040;-89
2022/03/09 01:15:18;;;;;;;16.15;9.07;;;;;;;1.88;50.04;102094.47;5057235;28;20044;-88
2022/03/09 01:17:44;;;;;;;13.32;8.35;;;;;;;1.88;49.50;102089.22;5071361;28;20399;-89
2022/03/09 01:20:10;;;;;;;13.88;8.25;;;;;;;1.80;49.50;102082.38;5061090;28;20092;-88
2022/03/09 01:22:35;;;;;;;12.93;8.40;;;;;;;1.86;49.65;102091.88;5056839;28;20116;-89
2022/03/09 01:25:01;;;;;;;11.98;8.15;;;;;;;1.87;49.57;102095.38;5057798;28;20089;-88
2022/03/09 01:27:26;;;;;;;10.82;8.13;;;;;;;1.88;49.38;102094.47;5071444;28;20468;-87
2022/03/09 01:29:54;;;;;;;12.20;8.00;;;;;;;1.85;49.29;102092.78;5045934;28;20025;-88
2022/03/09 01:32:21;;;;;;;10.07;8.52;;;;;;;1.84;49.35;102091.91;5072866;28;20056;-87
2022/03/09 01:34:47;;;;;;;13.40;8.75;;;;;;;1.87;49.44;102093.59;5052902;28;20021;-88
2022/03/09 01:37:12;;;;;;;11.18;8.00;;;;;;;1.84;49.11;102093.66;5063488;28;20091;-88
2022/03/09 01:39:38;;;;;;;13.00;8.55;;;;;;;1.81;49.55;102085.84;5060196;28;20036;-87
2022/03/09 01:42:03;;;;;;;12.57;7.90;;;;;;;1.85;49.14;102087.53;5061304;28;20037;-87
2022/03/09 01:44:29;;;;;;;13.02;8.50;;;;;;;1.89;49.12;102098.81;5052481;28;20037;-88
2022/03/09 01:46:55;;;;;;;13.70;8.23;;;;;;;1.77;49.31;102076.34;5056469;28;20391;-89
2022/03/09 01:49:22;;;;;;;15.95;9.13;;;;;;;1.79;49.47;102080.66;5056887;28;20694;-88
2022/03/09 01:51:50;;;;;;;11.57;8.45;;;;;;;1.74;49.18;102069.41;5055857;28;20052;-88
2022/03/09 01:54:15;;;;;;;12.65;8.63;;;;;;;1.82;48.98;102077.97;5056779;28;20112;-88
2022/03/09 01:56:42;;;;;;;11.02;8.07;;;;;;;1.81;49.37;102085.84;5057313;28;20519;-89
2022/03/09 01:59:09;;;;;;;11.45;8.27;;;;;;;1.79;49.19;102085.03;5056562;28;20124;-88
2022/03/09 02:01:35;;;;;;;10.38;7.88;;;;;;;1.71;49.29;102066.84;5057402;28;20029;-89
2022/03/09 02:04:02;;;;;;;9.77;7.97;;;;;;;1.73;49.29;102075.53;5061516;28;20031;-88
2022/03/09 02:06:28;;;;;;;13.13;8.60;;;;;;;1.75;49.50;102072.88;5070696;28;20031;-89
2022/03/09 02:11:38;;;;;;;13.15;9.05;;;;;;;1.69;49.90;102071.25;5063061;28;20562;-88
2022/03/09 02:14:04;;;;;;;11.63;8.77;;;;;;;1.70;49.90;102079.97;5063658;28;20021;-87
2022/03/09 02:16:30;;;;;;;10.88;8.57;;;;;;;1.61;49.53;102068.78;5072410;28;20075;-88
2022/03/09 02:18:55;;;;;;;14.95;8.13;;;;;;;1.66;50.09;102084.41;5077831;28;20029;-88
2022/03/09 02:21:25;;;;;;;13.13;8.60;;;;;;;1.58;50.29;102076.72;5062637;28;20037;-87
2022/03/09 02:23:50;;;;;;;12.20;8.45;;;;;;;1.61;50.14;102083.63;5062339;28;20032;-87
2022/03/09 02:26:16;;;;;;;13.55;8.75;;;;;;;1.64;50.05;102086.19;5073762;28;20033;-87
2022/03/09 02:28:46;;;;;;;13.75;8.73;;;;;;;1.64;49.94;102091.44;5059346;28;20035;-88
2022/03/09 02:31:12;;;;;;;11.38;8.23;;;;;;;1.59;50.21;102077.56;5059921;28;20112;-87
2022/03/09 02:33:40;;;;;;;12.50;8.75;;;;;;;1.61;49.99;102081.88;5059194;28;20059;-88
2022/03/09 02:36:05;;;;;;;12.75;8.52;;;;;;;1.57;50.51;102084.59;5060326;28;20021;-87
2022/03/09 02:38:30;;;;;;;11.40;8.60;;;;;;;1.56;50.60;102075.84;5074871;28;20021;-87
2022/03/09 02:40:56;;;;;;;13.00;8.43;;;;;;;1.55;50.40;102076.78;5074195;28;20039;-88
2022/03/09 02:43:23;;;;;;;13.70;8.88;;;;;;;1.52;50.62;102073.34;5060742;28;20388;-87
2022/03/09 02:45:48;;;;;;;14.93;9.30;;;;;;;1.47;50.62;102063.81;5071985;28;20461;-87
2022/03/09 02:48:14;;;;;;;15.57;8.85;;;;;;;1.52;50.72;102068.97;5072419;28;20084;-88
2022/03/09 02:50:39;;;;;;;11.88;8.70;;;;;;;1.49;51.00;102069.03;5061310;28;20383;-87
2022/03/09 02:53:04;;;;;;;15.55;9.20;;;;;;;1.49;51.21;102066.41;5056869;28;20044;-87
2022/03/09 02:55:30;;;;;;;14.80;9.15;;;;;;;1.41;50.93;102055.22;5073823;28;20055;-88
2022/03/09 02:57:55;;;;;;;12.00;9.35;;;;;;;1.41;51.44;102060.44;5060627;28;20029;-88
2022/03/09 03:00:20;;;;;;;15.13;9.05;;;;;;;1.39;51.32;102052.63;5061775;28;20067;-88
2022/03/09 03:02:46;;;;;;;15.48;8.68;;;;;;;1.34;51.23;102053.63;5070004;28;20032;-88
2022/03/09 03:05:25;;;;;;;16.60;9.55;;;;;;;1.37;51.38;102061.41;5082835;28;20052;-88
2022/03/09 03:07:50;;;;;;;17.52;9.07;;;;;;;1.34;51.83;102069.31;5065625;28;20498;-88
2022/03/09 03:10:15;;;;;;;13.85;9.35;;;;;;;1.32;51.49;102071.97;5066366;28;20021;-87
2022/03/09 03:12:44;;;;;;;13.07;8.50;;;;;;;1.30;51.58;102071.13;5067217;28;20032;-88
2022/03/09 03:15:09;;;;;;;13.13;8.63;;;;;;;1.24;51.82;102073.84;5062230;28;20037;-87
2022/03/09 03:17:38;;;;;;;15.13;9.05;;;;;;;1.16;51.87;102058.28;5062575;28;20084;-88
2022/03/09 03:20:05;;;;;;;14.73;9.07;;;;;;;1.15;52.37;102063.53;5075862;28;20088;-88
2022/03/09 03:22:30;;;;;;;15.88;9.15;;;;;;;1.19;52.07;102073.06;5071977;28;20028;-89
2022/03/09 03:24:55;;;;;;;15.55;9.68;;;;;;;1.16;52.60;102068.75;5062907;28;20025;-87
2022/03/09 03:27:21;;;;;;;14.55;8.70;;;;;;;1.14;52.40;102067.06;5043227;28;20451;-88
2022/03/09 03:29:46;;;;;;;16.38;10.10;;;;;;;1.10;52.51;102068.88;5059407;28;20061;-88
2022/03/09 03:32:11;;;;;;;19.00;9.55;;;;;;;1.08;52.47;102065.38;5041939;28;20053;-88
2022/03/09 03:34:37;;;;;;;14.07;9.75;;;;;;;1.08;52.61;102065.38;5053632;28;20033;-88
2022/03/09 03:37:05;;;;;;;13.88;9.70;;;;;;;1.06;52.94;102064.56;5064225;28;21085;-88
2022/03/09 03:39:30;;;;;;;16.35;9.13;;;;;;;1.03;52.86;102067.22;5048536;28;20025;-88
2022/03/09 03:41:56;;;;;;;13.35;9.23;;;;;;;0.92;53.07;102052.59;5049610;28;20072;-88
2022/03/09 03:44:24;;;;;;;12.68;9.32;;;;;;;0.94;52.91;102051.69;5069186;28;20036;-88
2022/03/09 03:46:52;;;;;;;12.60;8.95;;;;;;;0.90;53.23;102049.13;5072215;28;20060;-88
2022/03/09 03:49:17;;;;;;;13.05;9.35;;;;;;;0.92;53.44;102055.19;5068851;28;20037;-88
2022/03/09 03:51:45;;;;;;;16.23;8.70;;;;;;;0.88;53.37;102052.66;5057839;28;20069;-88
2022/03/09 03:54:10;;;;;;;14.25;9.43;;;;;;;0.84;53.41;102053.59;5045143;28;20029;-88
2022/03/09 03:56:38;;;;;;;14.73;9.55;;;;;;;0.85;52.95;102063.16;5051838;28;20036;-88
2022/03/09 03:59:03;;;;;;;12.55;9.25;;;;;;;0.88;53.31;102066.63;5071704;28;20036;-88
2022/03/09 04:01:29;;;;;;;17.33;9.45;;;;;;;0.86;53.40;102060.53;5070770;28;20036;-88
2022/03/09 04:03:54;;;;;;;13.63;9.18;;;;;;;0.87;53.28;102070.09;5067700;28;20032;-88
2022/03/09 04:06:19;;;;;;;15.80;9.07;;;;;;;0.86;53.16;102073.59;5065671;28;20106;-88
2022/03/09 04:08:45;;;;;;;13.90;9.77;;;;;;;0.84;53.26;102070.16;5065233;28;20124;-88
2022/03/09 04:11:10;;;;;;;13.88;9.85;;;;;;;0.84;53.20;102072.78;5058431;28;20086;-88
2022/03/09 04:13:35;;;;;;;13.68;9.32;;;;;;;0.80;53.40;102073.72;5041705;28;20088;-88
2022/03/09 04:16:03;;;;;;;13.25;9.77;;;;;;;0.74;53.35;102071.19;5042927;28;20030;-88
2022/03/09 04:18:29;;;;;;;15.85;9.38;;;;;;;0.77;53.83;102073.75;5059110;28;20029;-89
2022/03/09 04:20:56;;;;;;;15.02;8.70;;;;;;;0.73;53.82;102062.50;5059936;28;20090;-88
2022/03/09 04:23:21;;;;;;;14.63;9.98;;;;;;;0.68;54.06;102052.97;5064612;28;20019;-88
2022/03/09 04:25:47;;;;;;;15.70;9.40;;;;;;;0.69;54.06;102057.34;5061615;28;20032;-88
2022/03/09 04:28:12;;;;;;;13.88;8.80;;;;;;;0.70;54.19;102066.88;5061011;28;20079;-88
2022/03/09 04:30:38;;;;;;;14.85;9.95;;;;;;;0.69;53.89;102054.72;5060007;28;20055;-88
2022/03/09 04:33:06;;;;;;;15.38;9.68;;;;;;;0.64;54.10;102048.69;5041445;28;20103;-88
2022/03/09 04:35:31;;;;;;;12.98;9.90;;;;;;;0.55;54.06;102037.50;5057628;28;20500;-88
2022/03/09 04:37:56;;;;;;;16.02;9.65;;;;;;;0.61;54.53;102053.97;5062257;28;20036;-89
2022/03/09 04:40:22;;;;;;;14.63;9.13;;;;;;;0.62;54.40;102061.78;5059469;28;20068;-88
2022/03/09 04:42:47;;;;;;;14.82;9.05;;;;;;;0.57;54.03;102049.66;5061178;28;20012;-88
2022/03/09 04:45:13;;;;;;;14.57;10.30;;;;;;;0.50;53.98;102044.53;5059984;28;20040;-88
2022/03/09 04:47:38;;;;;;;13.50;9.40;;;;;;;0.52;54.65;102052.38;5059033;28;20024;-89
2022/03/09 04:50:04;;;;;;;12.88;8.63;;;;;;;0.45;54.35;102038.53;5060251;28;20143;-88
2022/03/09 04:52:30;;;;;;;14.40;9.63;;;;;;;0.48;54.72;102046.34;5060205;28;20345;-89
2022/03/09 04:54:55;;;;;;;15.48;9.50;;;;;;;0.46;54.20;102044.63;5056759;28;20033;-89
2022/03/09 04:57:20;;;;;;;13.13;9.13;;;;;;;0.51;54.24;102061.09;5043380;28;20104;-89
2022/03/09 04:59:46;;;;;;;12.85;8.95;;;;;;;0.48;54.90;102054.16;5053576;28;20037;-88
2022/03/09 05:02:14;;;;;;;13.20;9.30;;;;;;;0.40;54.83;102047.31;5049352;28;20053;-88
2022/03/09 05:04:40;;;;;;;14.63;9.40;;;;;;;0.40;54.90;102049.91;5038746;28;20303;-88
2022/03/09 05:07:05;;;;;;;16.65;9.45;;;;;;;0.45;54.84;102056.81;5038856;28;20032;-88
2022/03/09 05:09:31;;;;;;;12.95;8.90;;;;;;;0.43;54.56;102063.81;5039756;28;20030;-88
2022/03/09 05:11:56;;;;;;;16.17;9.15;;;;;;;0.35;54.55;102055.22;5039677;28;20036;-89
2022/03/09 05:14:21;;;;;;;19.20;9.82;;;;;;;0.34;54.39;102045.66;5040097;28;20338;-89
2022/03/09 05:16:47;;;;;;;13.23;9.20;;;;;;;0.31;54.46;102057.00;5059775;28;20026;-89
2022/03/09 05:19:12;;;;;;;13.82;9.27;;;;;;;0.27;54.69;102044.03;5041871;28;20037;-88
2022/03/09 05:21:37;;;;;;;12.00;8.93;;;;;;;0.38;54.40;102065.63;5060555;28;20496;-88
2022/03/09 05:24:03;;;;;;;14.73;9.55;;;;;;;0.28;55.13;102054.44;5057569;28;20036;-88
2022/03/09 05:26:29;;;;;;;15.05;9.38;;;;;;;0.26;54.91;102048.38;5040369;28;20041;-89
2022/03/09 05:28:56;;;;;;;14.80;9.50;;;;;;;0.26;55.10;102052.75;5039573;28;20025;-89
2022/03/09 05:31:22;;;;;;;14.00;8.95;;;;;;;0.28;54.80;102064.88;5044209;28;20395;-89
2022/03/09 05:33:47;;;;;;;19.60;10.52;;;;;;;0.19;55.02;102054.56;5054050;28;20017;-88
2022/03/09 05:36:12;;;;;;;14.73;9.07;;;;;;;0.16;54.77;102052.84;5073826;28;20032;-88
2022/03/09 05:38:40;;;;;;;13.95;9.30;;;;;;;0.15;55.53;102056.38;5069114;28;20037;-89
2022/03/09 05:41:06;;;;;;;14.55;8.88;;;;;;;0.18;55.25;102060.69;5067229;28;20083;-89
2022/03/09 05:43:32;;;;;;;13.02;9.27;;;;;;;0.11;55.18;102049.44;5066009;28;20024;-88
2022/03/09 05:45:57;;;;;;;12.52;9.32;;;;;;;0.17;55.20;102064.19;5065028;28;20356;-89
2022/03/09 05:48:22;;;;;;;13.80;9.20;;;;;;;0.17;55.14;102070.28;5061571;28;20040;-88
2022/03/09 05:50:48;;;;;;;16.63;9.60;;;;;;;0.17;55.18;102069.41;5060345;28;20040;-88
2022/03/09 05:53:13;;;;;;;14.60;8.93;;;;;;;0.09;55.30;102060.81;5052111;28;20021;-88
2022/03/09 05:55:39;;;;;;;15.38;9.85;;;;;;;0.16;54.91;102078.13;5069081;28;20029;-88
2022/03/09 05:58:04;;;;;;;16.30;9.43;;;;;;;0.12;55.27;102079.94;5054251;28;20042;-88
2022/03/09 06:00:30;;;;;;;16.08;9.57;;;;;;;0.08;55.38;102070.38;5069236;28;20036;-89
2022/03/09 06:02:55;;;;;;;13.40;9.20;;;;;;;0.16;55.39;102093.81;5066569;28;20033;-88
2022/03/09 06:05:21;;;;;;;13.15;9.43;;;;;;;0.17;54.94;102096.41;5060112;28;20035;-89
2022/03/09 06:07:46;;;;;;;15.73;9.20;;;;;;;0.10;55.10;102097.38;5060484;28;20526;-88
2022/03/09 06:10:11;;;;;;;15.35;9.43;;;;;;;0.12;55.05;102100.81;5060138;28;20025;-88
2022/03/09 06:12:39;;;;;;;16.10;9.02;;;;;;;0.10;55.16;102091.25;5060189;28;20056;-88
2022/03/09 06:15:05;;;;;;;14.05;9.50;;;;;;;0.08;55.57;102093.03;5059689;28;20055;-88
2022/03/09 06:17:32;;;;;;;16.17;9.18;;;;;;;0.10;55.45;102100.00;5062391;28;20498;-89
2022/03/09 06:20:00;;;;;;;14.45;9.00;;;;;;;0.07;55.36;102102.63;5067070;28;20035;-87
2022/03/09 06:22:26;;;;;;;13.85;10.10;;;;;;;0.02;55.48;102091.38;5065924;28;20097;-88
2022/03/09 06:24:51;;;;;;;14.43;9.45;;;;;;;0.06;55.53;102100.03;5063728;28;20029;-87
2022/03/09 06:27:17;;;;;;;21.08;10.10;;;;;;;0.01;55.89;102100.09;5058810;28;20045;-87
2022/03/09 06:29:42;;;;;;;14.88;9.93;;;;;;;0.01;55.76;102102.69;5060578;28;20033;-87
2022/03/09 06:32:15;;;;;;;14.65;9.98;;;;;;;0.02;55.97;102104.44;5058408;28;20045;-87
2022/03/09 06:34:40;;;;;;;16.35;9.30;;;;;;;0.02;56.17;102111.38;5043470;28;20043;-87
2022/03/09 06:37:06;;;;;;;15.50;9.90;;;;;;;0.04;56.32;102118.34;5059268;28;20025;-88
2022/03/09 06:39:31;;;;;;;20.80;10.25;;;;;;;0.02;55.96;102111.38;5060575;28;20036;-88
2022/03/09 06:41:57;;;;;;;19.25;10.10;;;;;;;0.07;55.95;102122.69;5060625;28;20125;-88
2022/03/09 06:44:23;;;;;;;13.60;9.48;;;;;;;0.04;56.33;102123.56;5059592;28;20044;-88
2022/03/09 06:46:48;;;;;;;18.13;9.80;;;;;;;0.03;56.33;102127.03;5061256;28;20482;-87
2022/03/09 06:49:16;;;;;;;16.38;9.38;;;;;;;0.04;56.61;102134.00;5061321;28;20033;-88
2022/03/09 06:51:44;;;;;;;17.98;9.68;;;;;;;0.00;56.34;102121.88;5062321;28;20025;-88
2022/03/09 06:54:12;;;;;;;17.05;9.40;;;;;;;0.11;56.37;102137.41;5064101;28;20219;-90
2022/03/09 06:56:37;;;;;;;16.88;9.85;;;;;;;0.16;56.21;102153.91;5061667;23;20057;-60
2022/03/09 06:59:03;;;;;;;16.65;9.95;;;;;;;0.20;56.07;102157.34;5035051;28;20032;-61
2022/03/09 07:01:28;;;;;;;15.80;9.40;;;;;;;0.22;56.04;102150.34;5035027;28;20038;-61
2022/03/09 07:03:53;;;;;;;18.70;10.15;;;;;;;0.28;55.96;102161.56;5035017;28;20029;-61
2022/03/09 07:06:18;;;;;;;16.05;10.00;;;;;;;0.32;56.13;102159.81;5033459;28;20073;-61
2022/03/09 07:08:44;;;;;;;20.42;10.23;;;;;;;0.35;55.59;102158.03;5033182;28;20025;-61
2022/03/09 07:11:09;;;;;;;18.00;9.30;;;;;;;0.40;55.65;102162.31;5030729;28;20487;-61
2022/03/09 07:13:34;;;;;;;17.88;10.05;;;;;;;0.44;55.55;102166.63;5022559;28;20034;-61
2022/03/09 07:16:00;;;;;;;13.77;9.10;;;;;;;0.52;54.87;102168.25;5031007;28;20517;-61
2022/03/09 07:18:25;;;;;;;14.43;9.20;;;;;;;0.59;55.10;102161.19;5021503;28;20041;-61
2022/03/09 07:20:50;;;;;;;18.67;9.93;;;;;;;0.66;54.62;102161.97;5020862;28;20033;-61
2022/03/09 07:23:15;;;;;;;20.58;10.30;;;;;;;0.72;54.50;102161.88;5015744;28;20506;-61
2022/03/09 07:25:43;;;;;;;15.07;8.82;;;;;;;0.78;53.98;102167.00;5013756;28;20042;-61
2022/03/09 07:28:08;;;;;;;20.58;9.55;;;;;;;0.82;53.88;102153.00;5018057;28;20520;-62
2022/03/09 07:30:35;;;;;;;17.00;9.77;;;;;;;0.88;53.87;102157.28;5015617;28;20112;-61
2022/03/09 07:33:00;;;;;;;15.40;9.75;;;;;;;0.94;53.95;102165.03;5014067;28;20056;-61
2022/03/09 07:35:26;;;;;;;14.30;9.45;;;;;;;1.02;53.25;102160.56;5012546;28;20476;-62
2022/03/09 07:37:52;;;;;;;13.88;9.05;;;;;;;1.11;53.08;102159.53;5013655;28;20125;-61
2022/03/09 07:40:17;;;;;;;14.13;8.75;;;;;;;1.19;53.16;102157.66;5014013;28;20451;-61
2022/03/09 07:42:43;;;;;;;14.40;9.77;;;;;;;1.27;52.69;102155.78;5012312;28;20041;-61
2022/03/09 07:45:09;;;;;;;16.15;9.77;;;;;;;1.42;51.89;102159.91;5013162;28;20034;-60
2022/03/09 07:47:35;;;;;;;19.20;9.63;;;;;;;1.53;52.23;102154.47;5013129;28;20476;-61
2022/03/09 07:50:01;;;;;;;13.93;10.20;;;;;;;1.67;51.99;102162.09;5013488;28;20147;-61
2022/03/09 07:52:26;;;;;;;13.32;9.25;;;;;;;1.77;51.65;102150.56;5013039;28;20476;-61
2022/03/09 07:54:52;;;;;;;14.32;9.60;;;;;;;1.91;51.04;102152.03;5012440;28;20116;-61
2022/03/09 07:57:17;;;;;;;17.60;9.25;;;;;;;2.05;50.66;102150.03;5012274;28;20077;-62
2022/03/09 07:59:42;;;;;;;17.30;9.88;;;;;;;2.19;50.66;102154.97;5014352;28;20045;-61
2022/03/09 08:02:08;;;;;;;14.75;9.55;;;;;;;2.32;50.64;102159.06;5012451;28;20042;-61
2022/03/09 08:04:33;;;;;;;13.80;9.90;;;;;;;2.48;49.86;102154.38;5013942;28;20064;-61
2022/03/09 08:06:58;;;;;;;14.18;9.43;;;;;;;2.63;49.97;102152.28;5028523;28;20022;-61
2022/03/09 08:09:24;;;;;;;14.60;9.93;;;;;;;2.79;49.44;102156.31;5027997;28;20029;-62
2022/03/09 08:11:49;;;;;;;15.25;10.20;;;;;;;2.97;49.64;102160.25;5030030;28;20083;-61
2022/03/09 08:14:15;;;;;;;16.35;10.52;;;;;;;3.12;48.86;102162.50;5033114;28;20388;-61
2022/03/09 08:16:40;;;;;;;18.38;10.32;;;;;;;3.34;48.42;102172.50;5029262;28;20435;-62
2022/03/09 08:19:06;;;;;;;14.20;9.52;;;;;;;3.54;47.48;102173.75;5032197;28;20037;-61
2022/03/09 08:21:32;;;;;;;17.58;10.45;;;;;;;3.78;47.17;102172.25;5029787;28;20025;-61
2022/03/09 08:23:57;;;;;;;17.42;10.27;;;;;;;4.00;45.90;102178.66;5031946;28;20052;-62
2022/03/09 08:26:22;;;;;;;16.38;10.00;;;;;;;4.29;46.51;102174.31;5028290;28;20535;-62
2022/03/09 08:28:48;;;;;;;15.13;10.00;;;;;;;4.53;45.24;102170.13;5031594;28;20021;-62
2022/03/09 08:31:13;;;;;;;16.98;10.77;;;;;;;4.75;44.30;102165.06;5031418;28;20068;-62
2022/03/09 08:33:39;;;;;;;16.30;10.40;;;;;;;4.99;43.52;102167.84;5023073;28;20033;-62
2022/03/09 08:36:04;;;;;;;16.92;9.88;;;;;;;5.17;42.84;102169.00;5013418;28;20465;-61
2022/03/09 08:38:30;;;;;;;16.73;9.93;;;;;;;5.41;44.24;102172.59;5013173;28;20034;-62
2022/03/09 08:40:55;;;;;;;14.13;9.82;;;;;;;5.66;43.67;102170.00;5013215;28;20161;-62
2022/03/09 08:43:21;;;;;;;18.77;10.55;;;;;;;5.90;42.96;102172.69;5013153;28;20454;-62
2022/03/09 08:45:46;;;;;;;18.50;10.98;;;;;;;6.17;42.32;102173.50;5013102;28;20038;-60
2022/03/09 08:48:12;;;;;;;16.55;10.02;;;;;;;6.34;41.59;102177.28;5012852;28;20041;-59
2022/03/09 08:50:37;;;;;;;15.50;10.48;;;;;;;6.59;41.52;102177.22;5013110;28;20057;-61
2022/03/09 08:53:03;;;;;;;16.45;10.68;;;;;;;6.82;41.61;102171.03;5025762;28;20098;-61
2022/03/09 08:55:29;;;;;;;15.63;9.82;;;;;;;7.06;40.98;102179.78;5028700;28;20036;-62
2022/03/09 08:57:55;;;;;;;14.50;10.82;;;;;;;7.22;40.00;102164.16;5029750;28;20494;-59
2022/03/09 09:00:20;;;;;;;14.73;10.55;;;;;;;7.45;40.02;102175.56;5028845;28;20107;-59
2022/03/09 09:02:46;;;;;;;16.45;10.52;;;;;;;7.64;39.55;102176.47;5031024;28;20108;-59
2022/03/09 09:05:11;;;;;;;19.00;10.85;;;;;;;7.87;39.24;102171.97;5031249;28;20065;-61
2022/03/09 09:07:36;;;;;;;17.50;10.90;;;;;;;8.06;38.13;102170.25;5027216;28;20514;-60
2022/03/09 09:10:02;;;;;;;16.25;10.65;;;;;;;8.21;37.53;102175.75;5031097;28;20356;-60
2022/03/09 09:12:30;;;;;;;17.75;10.70;;;;;;;8.31;37.30;102172.66;5030758;28;20208;-60
2022/03/09 09:14:55;;;;;;;15.02;10.98;;;;;;;8.47;38.00;102166.66;5009496;28;20083;-61
2022/03/09 09:17:20;;;;;;;19.08;11.50;;;;;;;8.68;37.69;102165.66;5021909;28;20056;-60
2022/03/09 09:19:46;;;;;;;18.73;11.70;;;;;;;8.85;36.63;102159.53;5030359;28;20033;-60
2022/03/09 09:22:11;;;;;;;19.30;11.85;;;;;;;9.01;36.63;102159.69;5030856;28;20033;-60
2022/03/09 09:24:36;;;;;;;18.83;12.13;;;;;;;9.13;36.45;102160.84;5025292;28;20026;-61
2022/03/09 09:27:01;;;;;;;18.60;10.95;;;;;;;9.34;35.77;102164.25;5024166;28;20025;-60
2022/03/09 09:29:27;;;;;;;16.92;11.30;;;;;;;9.45;35.36;102153.09;5014132;28;20538;-60
2022/03/09 09:31:52;;;;;;;21.48;12.10;;;;;;;9.52;35.37;102156.28;5026343;28;20036;-60
2022/03/09 09:34:18;;;;;;;18.90;11.13;;;;;;;9.82;36.31;102157.34;5020518;28;20499;-60
2022/03/09 09:36:46;;;;;;;19.33;11.60;;;;;;;10.06;35.41;102156.13;5028209;28;20033;-61
2022/03/09 09:39:15;;;;;;;18.75;12.07;;;;;;;10.23;35.29;102158.75;5021524;28;21130;-60
2022/03/09 09:41:46;;;;;;;18.52;11.88;;;;;;;10.34;34.68;102161.72;5027674;28;20483;-60
2022/03/09 09:44:12;;;;;;;20.33;12.25;;;;;;;10.44;33.90;102164.72;5021512;28;20429;-59
2022/03/09 09:46:39;;;;;;;18.60;12.07;;;;;;;10.58;34.23;102157.78;5029411;28;20029;-59
2022/03/09 09:49:06;;;;;;;21.02;12.43;;;;;;;10.68;34.28;102156.31;5021000;28;20120;-60
2022/03/09 09:51:31;;;;;;;18.90;12.32;;;;;;;10.79;34.06;102151.28;5019084;28;20075;-60
2022/03/09 09:53:58;;;;;;;18.77;12.23;;;;;;;10.89;33.67;102159.56;5031150;28;20050;-61
2022/03/09 09:56:23;;;;;;;17.83;12.38;;;;;;;11.07;33.72;102158.53;5021947;28;20046;-61
2022/03/09 09:58:50;;;;;;;16.75;11.43;;;;;;;11.24;33.70;102157.53;5029845;28;20033;-61
2022/03/09 10:01:15;;;;;;;17.98;11.82;;;;;;;11.40;34.25;102159.28;5030744;28;20022;-61
2022/03/09 10:03:41;;;;;;;20.67;12.32;;;;;;;11.47;32.78;102161.50;5026778;28;20414;-61
2022/03/09 10:06:06;;;;;;;22.23;12.77;;;;;;;11.54;33.65;102159.34;5016351;28;20037;-61
2022/03/09 10:08:31;;;;;;;19.15;12.05;;;;;;;11.83;33.85;102156.72;5029480;28;20283;-60
2022/03/09 10:11:00;;;;;;;20.70;12.57;;;;;;;11.98;32.00;102161.13;5030806;28;20368;-61
2022/03/09 10:13:38;;;;;;;20.17;12.80;;;;;;;12.12;33.22;102149.59;5028958;28;20033;-61
2022/03/09 10:16:12;;;;;;;26.27;13.40;;;;;;;12.31;32.21;102151.16;5023640;28;20075;-60
2022/03/09 10:18:38;;;;;;;19.27;12.80;;;;;;;12.46;32.23;102149.31;5027059;28;20631;-60
2022/03/09 10:21:10;;;;;;;21.73;13.55;;;;;;;12.56;32.12;102145.97;5021371;28;20022;-60
2022/03/09 10:23:50;;;;;;;20.25;13.95;;;;;;;12.71;33.26;102138.78;5028727;28;20474;-60
2022/03/09 10:26:17;;;;;;;22.02;13.75;;;;;;;12.95;31.73;102138.13;5015075;28;20406;-61
2022/03/09 10:28:57;;;;;;;21.42;14.10;;;;;;;13.11;32.37;102137.97;5015207;28;20036;-60
2022/03/09 10:31:32;;;;;;;;;;;;;;;13.27;34.15;102130.66;5015834;28;20050;-60
2022/03/09 10:34:19;;;;;;;25.13;14.38;;;;;;;13.42;31.87;102128.78;5015266;28;19929;-60
2022/03/09 10:36:56;;;;;;;24.17;14.55;;;;;;;13.38;31.69;102123.75;5025176;28;20033;-60
2022/03/09 10:39:23;;;;;;;22.65;14.10;;;;;;;13.39;30.72;102131.66;5026306;28;20030;-60
2022/03/09 10:41:49;;;;;;;22.52;14.75;;;;;;;13.55;31.15;102136.78;5014689;28;20029;-60
2022/03/09 10:44:14;;;;;;;22.08;13.63;;;;;;;13.55;30.17;102136.78;5014610;28;20034;-60
2022/03/09 10:46:50;;;;;;;24.17;14.05;;;;;;;13.53;31.55;102141.38;5014426;28;20084;-60
2022/03/09 10:49:24;;;;;;;20.55;14.65;;;;;;;13.70;30.43;102134.88;5014811;28;20037;-60
2022/03/09 10:51:52;;;;;;;24.50;14.30;;;;;;;13.92;30.33;102128.88;5014534;28;20061;-60
2022/03/09 10:54:27;;;;;;;20.77;14.32;;;;;;;14.16;31.28;102122.78;5014793;28;20029;-60
2022/03/09 10:57:10;;;;;;;22.17;14.68;;;;;;;14.39;31.34;102129.16;5014558;28;20061;-61
2022/03/09 10:59:51;;;;;;;25.20;15.07;;;;;;;14.48;30.63;102123.13;5013935;28;20034;-61
2022/03/09 11:02:21;;;;;;;24.45;14.88;;;;;;;14.55;29.50;102128.88;5014301;28;20029;-60
2022/03/09 11:05:09;;;;;;;22.83;14.98;;;;;;;14.67;30.73;102130.72;5014387;28;20499;-60
2022/03/09 11:07:36;;;;;;;23.15;14.85;;;;;;;14.69;29.45;102130.56;5014305;28;20029;-61
2022/03/09 11:10:03;;;;;;;25.23;16.00;;;;;;;14.74;28.98;102118.59;5014439;28;20030;-60
2022/03/09 11:12:29;;;;;;;23.58;15.82;;;;;;;15.04;29.98;102124.41;5014310;28;20453;-60
2022/03/09 11:14:54;;;;;;;23.58;14.80;;;;;;;14.98;28.24;102118.56;5014113;28;20033;-60
2022/03/09 11:17:23;;;;;;;23.38;14.52;;;;;;;15.11;29.53;102114.97;5013978;28;20036;-60
2022/03/09 11:19:49;;;;;;;26.27;15.45;;;;;;;15.28;28.89;102116.38;5022507;28;20336;-62
2022/03/09 11:22:14;;;;;;;27.02;17.08;;;;;;;15.48;28.66;102106.81;5032558;28;20127;-61